createdAt,value
2022-07-25T00:05:03.957Z,34.1
2022-07-25T00:10:46.579Z,34.1
2022-07-25T00:16:24.446Z,34.1
2022-07-25T00:22:02.493Z,34.1
2022-07-25T00:27:44.668Z,34.1
2022-07-25T00:33:21.991Z,34.1
2022-07-25T00:38:58.461Z,34.1
2022-07-25T00:44:41.174Z,34
2022-07-25T00:55:30.269Z,33.9
2022-07-25T01:01:07.785Z,33.9
2022-07-25T01:06:49.867Z,33.9
2022-07-25T01:12:26.921Z,33.9
2022-07-25T01:17:51.079Z,33.8
2022-07-25T01:28:45.036Z,33.9
2022-07-25T01:39:59.897Z,33.8
2022-07-25T01:45:37.609Z,33.8
2022-07-25T01:51:16.265Z,33.8
2022-07-25T01:57:04.836Z,33.8
2022-07-25T02:02:57.977Z,33.8
2022-07-25T02:08:34.654Z,33.8
2022-07-25T02:14:12.894Z,33.8
2022-07-25T02:19:53.507Z,33.9
2022-07-25T02:25:30.493Z,33.9
2022-07-25T02:31:07.386Z,33.9
2022-07-25T02:36:51.788Z,33.9
2022-07-25T02:42:29.120Z,34.1
2022-07-25T02:48:07.641Z,34.1
2022-07-25T02:54:11.557Z,34.1
2022-07-25T02:59:56.689Z,34.1
2022-07-25T03:05:21.717Z,34.1
2022-07-25T03:11:00.715Z,34.1
2022-07-25T03:16:37.718Z,34
2022-07-25T03:22:14.689Z,34
2022-07-25T03:28:06.542Z,34
2022-07-25T03:33:43.540Z,33.9
2022-07-25T03:39:22.125Z,33.9
2022-07-25T03:45:03.552Z,33.9
2022-07-25T03:55:46.757Z,33.9
2022-07-25T04:01:31.495Z,33.9
2022-07-25T04:07:10.059Z,33.8
2022-07-25T04:12:48.169Z,33.8
2022-07-25T04:18:45.239Z,33.8
2022-07-25T04:24:26.398Z,33.8
2022-07-25T04:30:02.598Z,33.8
2022-07-25T04:35:31.926Z,33.8
2022-07-25T04:41:13.745Z,33.8
2022-07-25T04:46:52.719Z,33.8
2022-07-25T04:52:20.026Z,33.8
2022-07-25T04:57:56.235Z,33.8
2022-07-25T05:03:05.975Z,33.8
2022-07-25T05:08:47.010Z,33.7
2022-07-25T05:14:28.248Z,33.7
2022-07-25T05:20:05.578Z,33.7
2022-07-25T05:25:36.577Z,33.6
2022-07-25T05:31:13.918Z,33.6
2022-07-25T05:42:01.738Z,33.6
2022-07-25T05:47:39.609Z,33.5
2022-07-25T05:53:19.371Z,32.3
2022-07-25T05:59:02.675Z,33.3
2022-07-25T06:04:43.582Z,34.8
2022-07-25T06:10:22.274Z,35.6
2022-07-25T06:16:23.678Z,36.4
2022-07-25T06:22:02.345Z,37
2022-07-25T06:27:53.196Z,37.8
2022-07-25T06:33:43.439Z,38.6
2022-07-25T06:39:19.927Z,39.4
2022-07-25T06:45:02.509Z,40.2
2022-07-25T06:50:27.790Z,40.9
2022-07-25T06:56:04.907Z,41.6
2022-07-25T07:01:51.140Z,42.4
2022-07-25T07:07:30.864Z,43.2
2022-07-25T07:13:11.926Z,43.9
2022-07-25T07:18:51.513Z,44.8
2022-07-25T07:25:00.850Z,45.4
2022-07-25T07:31:17.357Z,46.3
2022-07-25T07:36:59.808Z,47.1
2022-07-25T07:42:46.186Z,47.9
2022-07-25T07:53:35.274Z,49.1
2022-07-25T07:59:12.003Z,49.8
2022-07-25T15:20:40.624Z,55.1
2022-07-25T15:27:24.635Z,54.6
2022-07-25T15:33:05.897Z,54
2022-07-25T15:38:30.365Z,53.5
2022-07-25T15:44:10.481Z,53
2022-07-25T15:50:21.608Z,52.4
2022-07-25T16:01:34.366Z,51.5
2022-07-25T16:07:14.209Z,51.1
2022-07-25T16:12:58.510Z,50.6
2022-07-25T16:18:38.389Z,48.3
2022-07-25T16:24:18.989Z,46.7
2022-07-25T16:30:05.109Z,45.7
2022-07-25T16:35:49.769Z,44.9
2022-07-25T16:41:33.727Z,44.4
2022-07-25T16:47:18.370Z,44
2022-07-25T16:53:04.099Z,43.7
2022-07-25T16:58:49.383Z,43.4
2022-07-25T17:04:30.301Z,43.3
2022-07-25T17:10:14.443Z,43.1
2022-07-25T17:15:54.171Z,43.1
2022-07-25T17:21:39.167Z,43.1
2022-07-25T17:27:20.174Z,43
2022-07-25T17:33:03.317Z,42.9
2022-07-25T17:38:51.043Z,42.8
2022-07-25T17:44:16.397Z,42.6
2022-07-25T17:49:55.934Z,42.6
2022-07-25T17:55:39.679Z,42.6
2022-07-25T18:01:26.489Z,42.5
2022-07-25T18:07:07.315Z,42.4
2022-07-25T18:12:46.383Z,42.4
2022-07-25T18:18:28.089Z,42.3
2022-07-25T18:24:07.240Z,42.3
2022-07-25T18:29:51.762Z,42.3
2022-07-25T18:35:35.360Z,42.3
2022-07-25T18:41:44.129Z,42.2
2022-07-25T18:47:35.322Z,42.1
2022-07-25T18:53:18.988Z,41.9
2022-07-25T18:59:00.233Z,41.8
2022-07-25T19:04:40.310Z,41.8
2022-07-25T19:10:20.415Z,41.6
2022-07-25T19:16:32.910Z,41.4
2022-07-25T19:22:12.825Z,41.3
2022-07-25T19:27:54.973Z,41.1
